createdAt,value
2023-03-12T00:00:54.349Z,950.5
2023-03-12T00:01:57.339Z,950.51
2023-03-12T00:02:59.457Z,950.52
2023-03-12T00:04:01.496Z,950.56
2023-03-12T00:05:04.384Z,950.57
2023-03-12T00:06:10.894Z,950.55
2023-03-12T00:07:08.344Z,950.57
2023-03-12T00:08:10.402Z,950.56
2023-03-12T00:09:12.350Z,950.57
2023-03-12T00:10:14.429Z,950.58
2023-03-12T00:11:16.348Z,950.61
2023-03-12T00:12:18.344Z,950.61
2023-03-12T00:14:22.368Z,950.62
2023-03-12T00:15:25.355Z,950.63
2023-03-12T00:17:29.344Z,950.64
2023-03-12T00:18:31.356Z,950.66
2023-03-12T00:19:33.403Z,950.65
2023-03-12T00:20:35.365Z,950.64
2023-03-12T00:21:37.413Z,950.68
2023-03-12T00:22:39.366Z,950.7
2023-03-12T00:23:41.416Z,950.71
2023-03-12T00:24:43.350Z,950.68
2023-03-12T00:25:46.849Z,950.7
2023-03-12T00:26:47.373Z,950.73
2023-03-12T00:27:50.364Z,950.69
2023-03-12T00:28:52.396Z,950.71
2023-03-12T00:29:54.364Z,950.72
2023-03-12T00:30:57.274Z,950.69
2023-03-12T00:31:59.365Z,950.75
2023-03-12T00:33:01.357Z,950.75
2023-03-12T00:34:04.389Z,950.73
2023-03-12T00:35:06.355Z,950.73
2023-03-12T00:36:08.386Z,950.71
2023-03-12T00:37:10.349Z,950.77
2023-03-12T00:38:12.367Z,950.72
2023-03-12T00:39:14.374Z,950.76
2023-03-12T00:40:16.403Z,950.76
2023-03-12T00:41:18.378Z,950.8
2023-03-12T00:43:23.355Z,950.77
2023-03-12T00:44:25.371Z,950.76
2023-03-12T00:45:27.367Z,950.74
2023-03-12T00:46:29.486Z,950.76
2023-03-12T00:47:31.368Z,950.76
2023-03-12T00:48:33.397Z,950.76
2023-03-12T00:49:35.382Z,950.78
2023-03-12T00:50:37.370Z,950.77
2023-03-12T00:51:39.415Z,950.8
2023-03-12T00:52:41.367Z,950.81
2023-03-12T00:53:43.373Z,950.81
2023-03-12T00:54:45.367Z,950.82
2023-03-12T00:55:47.406Z,950.86
2023-03-12T00:56:49.411Z,950.83
2023-03-12T00:57:51.369Z,950.84
2023-03-12T00:58:53.368Z,950.87
2023-03-12T00:59:55.376Z,950.83
2023-03-12T01:00:58.464Z,950.88
2023-03-12T01:02:00.420Z,950.86
2023-03-12T01:03:02.383Z,950.85
2023-03-12T01:04:04.458Z,950.84
2023-03-12T01:05:06.393Z,950.9
2023-03-12T01:06:09.421Z,950.88
2023-03-12T01:07:11.382Z,950.84
2023-03-12T01:08:13.371Z,950.86
2023-03-12T01:09:15.375Z,950.84
2023-03-12T01:10:17.462Z,950.86
2023-03-12T01:11:19.418Z,950.85
2023-03-12T01:13:23.406Z,950.83
2023-03-12T01:15:14.782Z,950.81
2023-03-12T01:17:14.880Z,950.83
2023-03-12T01:18:14.777Z,950.85
2023-03-12T01:19:14.774Z,950.86
2023-03-12T01:22:15.232Z,950.83
2023-03-12T01:23:14.796Z,950.85
2023-03-12T01:25:14.795Z,950.8
2023-03-12T01:26:14.821Z,950.78
2023-03-12T01:30:14.815Z,950.74
2023-03-12T01:33:14.848Z,950.75
2023-03-12T01:34:14.805Z,950.79
2023-03-12T01:35:14.848Z,950.79
2023-03-12T01:36:14.820Z,950.78
2023-03-12T01:37:14.790Z,950.77
2023-03-12T01:38:15.447Z,950.74
2023-03-12T01:39:17.451Z,950.75
2023-03-12T01:41:21.439Z,950.73
2023-03-12T01:42:35.544Z,950.74
2023-03-12T01:43:25.405Z,950.76
2023-03-12T01:44:28.411Z,950.74
2023-03-12T01:45:30.457Z,950.77
2023-03-12T01:47:36.439Z,950.77
2023-03-12T01:48:38.402Z,950.77
2023-03-12T01:49:40.408Z,950.76
2023-03-12T01:50:42.402Z,950.77
2023-03-12T01:53:50.403Z,950.73
2023-03-12T01:54:52.407Z,950.75
2023-03-12T01:55:54.442Z,950.73
2023-03-12T01:56:57.406Z,950.76
2023-03-12T01:57:59.407Z,950.77
2023-03-12T01:59:01.406Z,950.79
2023-03-12T02:00:04.500Z,950.79
2023-03-12T02:01:08.479Z,950.82
2023-03-12T02:02:10.394Z,950.81
2023-03-12T02:03:12.414Z,950.81
2023-03-12T02:04:14.526Z,950.86
2023-03-12T02:05:16.421Z,950.8
2023-03-12T02:06:18.452Z,950.77
2023-03-12T02:07:20.450Z,950.79
2023-03-12T02:08:22.460Z,950.76
2023-03-12T02:09:24.440Z,950.74
2023-03-12T02:10:26.439Z,950.75
2023-03-12T02:11:28.419Z,950.72
2023-03-12T02:12:30.460Z,950.7
2023-03-12T02:13:32.424Z,950.68
2023-03-12T02:14:34.417Z,950.69
2023-03-12T02:15:36.515Z,950.7
2023-03-12T02:16:38.456Z,950.69
2023-03-12T02:17:53.434Z,950.66
2023-03-12T02:18:42.404Z,950.66
2023-03-12T02:19:44.415Z,950.67
2023-03-12T02:20:46.436Z,950.64
2023-03-12T02:21:48.414Z,950.68
2023-03-12T02:22:50.439Z,950.69
2023-03-12T02:23:52.424Z,950.68
2023-03-12T02:24:54.430Z,950.65
2023-03-12T02:25:56.475Z,950.65
2023-03-12T02:26:58.423Z,950.65
2023-03-12T02:28:00.425Z,950.69
2023-03-12T02:29:04.429Z,950.71
2023-03-12T02:30:08.428Z,950.68
2023-03-12T02:31:10.484Z,950.71
2023-03-12T02:32:12.465Z,950.7
2023-03-12T02:33:14.444Z,950.74
2023-03-12T02:34:16.454Z,950.7
2023-03-12T02:35:18.459Z,950.75
2023-03-12T02:36:21.432Z,950.76
2023-03-12T02:37:23.433Z,950.79
2023-03-12T02:38:25.476Z,950.81
2023-03-12T02:39:27.433Z,950.83
2023-03-12T02:40:29.425Z,950.84
2023-03-12T02:41:31.436Z,950.84
2023-03-12T02:42:33.435Z,950.85
2023-03-12T02:43:35.462Z,950.85
2023-03-12T02:44:37.463Z,950.87
2023-03-12T02:45:39.522Z,950.86
2023-03-12T02:46:41.476Z,950.85
2023-03-12T02:47:44.450Z,950.86
2023-03-12T02:48:46.448Z,950.86
2023-03-12T02:49:48.453Z,950.88
2023-03-12T02:50:50.448Z,950.94
2023-03-12T02:51:52.447Z,950.93
2023-03-12T02:52:54.437Z,950.9
2023-03-12T02:53:56.448Z,950.94
2023-03-12T02:54:58.432Z,950.97
2023-03-12T02:57:02.479Z,950.92
2023-03-12T02:58:04.466Z,950.92
2023-03-12T02:59:06.493Z,950.96
2023-03-12T03:00:08.458Z,950.97
2023-03-12T03:01:10.484Z,950.98
2023-03-12T03:02:12.451Z,951.01
2023-03-12T03:03:14.482Z,951.03
2023-03-12T03:04:29.642Z,951.03
2023-03-12T03:05:18.457Z,951.02
2023-03-12T03:06:20.455Z,951.05
2023-03-12T03:07:22.454Z,951.07
2023-03-12T03:08:24.476Z,951.09
2023-03-12T03:09:27.454Z,951.09
2023-03-12T03:10:29.452Z,951.08
2023-03-12T03:11:31.469Z,951.04
2023-03-12T03:12:33.466Z,951.05
2023-03-12T03:13:35.493Z,951.07
2023-03-12T03:14:37.456Z,951.09
2023-03-12T03:15:39.496Z,951.15
2023-03-12T03:16:41.452Z,951.18
2023-03-12T03:17:43.466Z,951.16
2023-03-12T03:18:45.510Z,951.19
2023-03-12T03:19:47.458Z,951.18
2023-03-12T03:20:49.467Z,951.19
2023-03-12T03:21:51.482Z,951.21
2023-03-12T03:22:54.462Z,951.19
2023-03-12T03:23:56.468Z,951.26
2023-03-12T03:24:58.463Z,951.25
2023-03-12T03:26:00.470Z,951.28
2023-03-12T03:27:02.496Z,951.28
2023-03-12T03:28:04.489Z,951.27
2023-03-12T03:29:08.500Z,951.27
2023-03-12T03:30:10.535Z,951.24
2023-03-12T03:31:12.567Z,951.23
2023-03-12T03:32:14.569Z,951.26
2023-03-12T03:33:16.523Z,951.24
2023-03-12T03:34:18.480Z,951.26
2023-03-12T03:35:20.466Z,951.24
2023-03-12T03:36:22.473Z,951.27
2023-03-12T03:37:25.508Z,951.25
2023-03-12T03:38:27.482Z,951.23
2023-03-12T03:39:29.494Z,951.24
2023-03-12T03:40:32.476Z,951.24
2023-03-12T03:41:34.508Z,951.2
2023-03-12T03:42:36.478Z,951.2
2023-03-12T03:43:38.493Z,951.2
2023-03-12T03:44:40.475Z,951.16
2023-03-12T03:45:43.486Z,951.15
2023-03-12T03:46:45.486Z,951.21
2023-03-12T03:47:47.489Z,951.22
2023-03-12T03:48:49.508Z,951.2
2023-03-12T03:49:51.484Z,951.22
2023-03-12T03:50:53.477Z,951.22
2023-03-12T03:51:55.486Z,951.22
2023-03-12T03:52:57.504Z,951.19
2023-03-12T03:53:59.492Z,951.26
2023-03-12T03:55:01.505Z,951.26
2023-03-12T03:56:04.628Z,951.24
2023-03-12T03:57:08.529Z,951.25
2023-03-12T03:58:10.488Z,951.24
2023-03-12T03:59:12.484Z,951.25
2023-03-12T04:00:14.555Z,951.24
2023-03-12T04:01:16.484Z,951.23
2023-03-12T04:02:18.507Z,951.26
2023-03-12T04:03:20.508Z,951.25
2023-03-12T04:04:22.493Z,951.26
2023-03-12T04:05:24.496Z,951.23
2023-03-12T04:06:26.501Z,951.25
2023-03-12T04:07:28.495Z,951.24
2023-03-12T04:08:30.532Z,951.25
2023-03-12T04:09:32.494Z,951.25
2023-03-12T04:10:34.524Z,951.22
2023-03-12T04:11:36.491Z,951.24
2023-03-12T04:13:41.541Z,951.23
2023-03-12T04:14:43.508Z,951.25
2023-03-12T04:15:45.596Z,951.24
2023-03-12T04:16:48.495Z,951.27
2023-03-12T04:17:50.540Z,951.27
2023-03-12T04:18:52.499Z,951.29
2023-03-12T04:19:54.501Z,951.34
2023-03-12T04:20:56.507Z,951.33
2023-03-12T04:21:58.507Z,951.32
2023-03-12T04:23:00.546Z,951.34
2023-03-12T04:24:02.512Z,951.35
2023-03-12T04:25:04.524Z,951.35
2023-03-12T04:26:06.542Z,951.33
2023-03-12T04:27:08.506Z,951.37
2023-03-12T04:28:10.535Z,951.4
2023-03-12T04:29:12.693Z,951.4
2023-03-12T04:30:14.498Z,951.41
2023-03-12T04:31:16.577Z,951.43
2023-03-12T04:32:18.531Z,951.39
2023-03-12T04:33:20.523Z,951.4
2023-03-12T04:34:22.513Z,951.4
2023-03-12T04:35:24.509Z,951.41
2023-03-12T04:36:26.521Z,951.41
2023-03-12T04:37:28.517Z,951.42
2023-03-12T04:38:30.511Z,951.44
2023-03-12T04:39:32.509Z,951.43
2023-03-12T04:40:34.522Z,951.45
2023-03-12T04:41:36.513Z,951.47
2023-03-12T04:42:39.548Z,951.44
2023-03-12T04:44:43.514Z,951.43
2023-03-12T04:45:45.534Z,951.43
2023-03-12T04:46:47.561Z,951.46
2023-03-12T04:47:49.520Z,951.46
2023-03-12T04:48:51.821Z,951.45
2023-03-12T04:49:53.527Z,951.46
2023-03-12T04:50:55.545Z,951.46
2023-03-12T04:51:57.538Z,951.42
2023-03-12T04:52:59.521Z,951.46
2023-03-12T04:54:01.543Z,951.45
2023-03-12T04:55:15.127Z,951.46
2023-03-12T04:56:14.925Z,951.45
2023-03-12T04:57:14.925Z,951.49
2023-03-12T04:58:14.925Z,951.47
2023-03-12T04:59:14.914Z,951.44
2023-03-12T05:00:14.923Z,951.48
2023-03-12T05:01:16.583Z,951.47
2023-03-12T05:02:18.532Z,951.45
2023-03-12T05:03:20.534Z,951.49
2023-03-12T05:04:22.544Z,951.5
2023-03-12T05:05:24.538Z,951.51
2023-03-12T05:06:26.590Z,951.51
2023-03-12T05:07:28.538Z,951.5
2023-03-12T05:08:30.533Z,951.47
2023-03-12T05:09:32.540Z,951.48
2023-03-12T05:10:35.544Z,951.5
2023-03-12T05:11:39.693Z,951.45
2023-03-12T05:12:40.542Z,951.43
2023-03-12T05:13:42.594Z,951.4
2023-03-12T05:14:44.544Z,951.44
2023-03-12T05:15:47.566Z,951.42
2023-03-12T05:16:49.543Z,951.42
2023-03-12T05:17:51.610Z,951.44
2023-03-12T05:18:53.544Z,951.41
2023-03-12T05:19:55.544Z,951.41
2023-03-12T05:20:57.556Z,951.4
2023-03-12T05:21:59.543Z,951.38
2023-03-12T05:23:01.554Z,951.33
2023-03-12T05:24:04.575Z,951.37
2023-03-12T05:25:08.630Z,951.35
2023-03-12T05:26:10.549Z,951.32
2023-03-12T05:27:12.550Z,951.28
2023-03-12T05:28:14.562Z,951.29
2023-03-12T05:29:16.555Z,951.27
2023-03-12T05:31:20.592Z,951.3
2023-03-12T05:32:22.639Z,951.29
2023-03-12T05:33:24.553Z,951.28
2023-03-12T05:34:26.557Z,951.27
2023-03-12T05:35:28.562Z,951.28
2023-03-12T05:36:30.553Z,951.27
2023-03-12T05:37:32.559Z,951.31
2023-03-12T05:38:34.561Z,951.31
2023-03-12T05:39:36.555Z,951.3
2023-03-12T05:40:38.592Z,951.32
2023-03-12T05:41:40.557Z,951.34
2023-03-12T05:42:42.555Z,951.37
2023-03-12T05:44:14.969Z,951.37
2023-03-12T05:45:14.956Z,951.36
2023-03-12T05:46:14.988Z,951.36
2023-03-12T05:47:14.949Z,951.36
2023-03-12T05:48:14.986Z,951.3
2023-03-12T05:49:14.954Z,951.3
2023-03-12T05:50:14.949Z,951.28
2023-03-12T05:51:14.992Z,951.29
2023-03-12T05:52:14.952Z,951.3
2023-03-12T05:53:14.997Z,951.28
2023-03-12T05:54:14.954Z,951.28
2023-03-12T05:55:14.961Z,951.29
2023-03-12T05:56:14.948Z,951.26
2023-03-12T05:57:14.963Z,951.31
2023-03-12T05:58:14.997Z,951.31
2023-03-12T05:59:16.569Z,951.3
2023-03-12T06:00:18.562Z,951.32
2023-03-12T06:01:20.565Z,951.27
2023-03-12T06:02:22.657Z,951.29
2023-03-12T06:03:24.591Z,951.27
2023-03-12T06:04:26.573Z,951.27
2023-03-12T06:05:28.581Z,951.27
2023-03-12T06:06:31.576Z,951.27
2023-03-12T06:07:33.573Z,951.25
2023-03-12T06:09:38.699Z,951.25
2023-03-12T06:10:40.562Z,951.27
2023-03-12T06:11:42.608Z,951.26
2023-03-12T06:12:44.587Z,951.3
2023-03-12T06:13:46.569Z,951.3
2023-03-12T06:14:48.574Z,951.3
2023-03-12T06:15:51.584Z,951.29
2023-03-12T06:16:53.740Z,951.29
2023-03-12T06:17:55.568Z,951.29
2023-03-12T06:18:58.570Z,951.3
2023-03-12T06:20:00.643Z,951.31
2023-03-12T06:21:02.585Z,951.33
2023-03-12T06:22:04.604Z,951.36
2023-03-12T06:23:06.654Z,951.33
2023-03-12T06:25:11.611Z,951.38
2023-03-12T06:26:13.579Z,951.33
2023-03-12T06:28:17.644Z,951.33
2023-03-12T06:29:19.603Z,951.36
2023-03-12T06:30:21.590Z,951.38
2023-03-12T06:33:28.298Z,951.39
2023-03-12T06:34:30.262Z,951.44
2023-03-12T06:35:32.267Z,951.44
2023-03-12T06:36:34.264Z,951.44
2023-03-12T06:37:36.273Z,951.43
2023-03-12T06:38:39.367Z,951.46
2023-03-12T06:39:41.335Z,951.45
2023-03-12T06:40:44.278Z,951.47
2023-03-12T06:41:46.312Z,951.47
2023-03-12T06:42:48.259Z,951.47
2023-03-12T06:44:52.307Z,951.43
2023-03-12T06:45:54.315Z,951.45
2023-03-12T06:46:57.275Z,951.44
2023-03-12T06:48:14.983Z,951.44
2023-03-12T06:49:14.996Z,951.46
2023-03-12T06:51:15.023Z,951.43
2023-03-12T06:53:14.978Z,951.43
2023-03-12T06:54:14.981Z,951.44
2023-03-12T06:56:19.631Z,951.44
2023-03-12T06:57:21.625Z,951.42
2023-03-12T06:58:23.619Z,951.43
2023-03-12T06:59:25.609Z,951.45
2023-03-12T07:00:27.608Z,951.46
2023-03-12T07:02:31.734Z,951.43
2023-03-12T07:04:36.708Z,951.44
2023-03-12T07:05:38.618Z,951.42
2023-03-12T07:06:41.627Z,951.36
2023-03-12T07:07:43.612Z,951.35
2023-03-12T07:08:45.616Z,951.35
2023-03-12T07:10:15.301Z,951.33
2023-03-12T07:12:05.698Z,951.33
2023-03-12T07:12:54.625Z,951.32
2023-03-12T07:13:56.629Z,951.31
2023-03-12T07:14:58.629Z,951.31
2023-03-12T07:16:01.760Z,951.33
2023-03-12T07:18:05.661Z,951.37
2023-03-12T07:20:09.656Z,951.31
2023-03-12T07:21:12.676Z,951.32
2023-03-12T07:22:15.657Z,951.34
2023-03-12T07:23:17.652Z,951.35
2023-03-12T07:24:19.637Z,951.34
2023-03-12T07:25:21.627Z,951.36
2023-03-12T07:26:23.632Z,951.35
2023-03-12T07:27:25.682Z,951.35
2023-03-12T07:28:27.662Z,951.33
2023-03-12T07:29:29.638Z,951.33
2023-03-12T07:30:31.642Z,951.3
2023-03-12T07:31:33.764Z,951.3
2023-03-12T07:32:35.731Z,951.27
2023-03-12T07:33:38.751Z,951.27
2023-03-12T07:34:40.630Z,951.24
2023-03-12T07:35:42.852Z,951.25
2023-03-12T07:36:44.801Z,951.29
2023-03-12T07:37:46.726Z,951.26
2023-03-12T07:38:48.635Z,951.26
2023-03-12T07:39:50.748Z,951.22
2023-03-12T07:40:52.682Z,951.26
2023-03-12T07:41:54.676Z,951.27
2023-03-12T07:42:56.682Z,951.24
2023-03-12T07:43:58.870Z,951.23
2023-03-12T07:45:00.685Z,951.2
2023-03-12T07:46:02.666Z,951.21
2023-03-12T07:47:20.716Z,951.22
2023-03-12T07:48:07.738Z,951.21
2023-03-12T07:49:09.640Z,951.19
2023-03-12T07:50:12.732Z,951.18
2023-03-12T07:51:14.686Z,951.14
2023-03-12T07:52:16.663Z,951.15
2023-03-12T07:53:18.634Z,951.11
2023-03-12T07:55:22.693Z,951.16
2023-03-12T07:56:24.781Z,951.12
2023-03-12T07:57:26.781Z,951.15
2023-03-12T07:58:28.810Z,951.18
2023-03-12T07:59:30.654Z,951.18
2023-03-12T08:00:32.828Z,951.2
2023-03-12T08:01:34.745Z,951.19
2023-03-12T08:02:37.846Z,951.17
2023-03-12T08:03:53.754Z,951.13
2023-03-12T08:04:41.778Z,951.08
2023-03-12T08:05:43.727Z,951.11
2023-03-12T08:06:46.760Z,951.08
2023-03-12T08:07:48.906Z,951.07
2023-03-12T08:08:50.743Z,951.09
2023-03-12T08:09:52.660Z,951.09
2023-03-12T08:10:55.657Z,951.14
2023-03-12T08:11:57.703Z,951.13
2023-03-12T08:12:59.681Z,951.14
2023-03-12T08:14:01.704Z,951.13
2023-03-12T08:15:03.705Z,951.18
2023-03-12T08:16:07.620Z,951.21
2023-03-12T08:17:07.646Z,951.21
2023-03-12T08:18:09.655Z,951.25
2023-03-12T08:19:12.672Z,951.27
2023-03-12T08:20:15.665Z,951.24
2023-03-12T08:21:17.661Z,951.24
2023-03-12T08:22:19.665Z,951.22
2023-03-12T08:23:22.705Z,951.2
2023-03-12T08:24:24.659Z,951.22
2023-03-12T08:25:26.677Z,951.21
2023-03-12T08:26:29.660Z,951.18
2023-03-12T08:27:31.662Z,951.17
2023-03-12T08:28:33.662Z,951.15
2023-03-12T08:29:35.664Z,951.14
2023-03-12T08:30:37.670Z,951.16
2023-03-12T08:31:45.396Z,951.17
2023-03-12T08:32:53.726Z,951.17
2023-03-12T08:33:43.756Z,951.21
2023-03-12T08:34:45.681Z,951.2
2023-03-12T08:35:47.710Z,951.17
2023-03-12T08:36:49.667Z,951.11
2023-03-12T08:37:51.889Z,951.15
2023-03-12T08:38:53.658Z,951.16
2023-03-12T08:39:55.661Z,951.17
2023-03-12T08:40:57.663Z,951.12
2023-03-12T08:41:59.664Z,951.07
2023-03-12T08:43:01.766Z,951.07
2023-03-12T08:44:03.674Z,951.02
2023-03-12T08:45:05.690Z,951.06
2023-03-12T08:47:10.336Z,951.08
2023-03-12T08:48:12.340Z,951.08
2023-03-12T08:49:16.306Z,951.11
2023-03-12T08:50:18.562Z,951.1
2023-03-12T08:51:20.300Z,951.08
2023-03-12T08:52:22.307Z,951.08
2023-03-12T08:53:24.345Z,951.08
2023-03-12T08:54:26.316Z,951.1
2023-03-12T08:55:28.332Z,951.11
2023-03-12T08:56:31.306Z,951.13
2023-03-12T08:57:33.317Z,951.1
2023-03-12T08:58:35.313Z,951.09
2023-03-12T08:59:37.324Z,951.12
2023-03-12T09:00:40.316Z,951.1
2023-03-12T09:01:43.859Z,951.08
2023-03-12T09:02:44.417Z,951.09
2023-03-12T09:03:47.313Z,951.11
2023-03-12T09:04:49.355Z,951.12
2023-03-12T09:05:51.363Z,951.11
2023-03-12T09:06:53.324Z,951.1
2023-03-12T09:07:56.313Z,951.09
2023-03-12T09:08:58.315Z,951.08
2023-03-12T09:10:00.332Z,951.02
2023-03-12T09:11:03.325Z,951
2023-03-12T09:12:05.333Z,950.99
2023-03-12T09:13:07.338Z,950.93
2023-03-12T09:15:12.355Z,950.88
2023-03-12T09:16:15.443Z,950.89
2023-03-12T09:17:17.318Z,950.85
2023-03-12T09:19:21.366Z,950.85
2023-03-12T09:20:23.339Z,950.81
2023-03-12T09:21:25.357Z,950.82
2023-03-12T09:22:27.340Z,950.8
2023-03-12T09:23:29.340Z,950.76
2023-03-12T09:24:31.380Z,950.75
2023-03-12T09:25:34.326Z,950.76
2023-03-12T09:26:36.326Z,950.8
2023-03-12T09:27:38.312Z,950.79
2023-03-12T09:28:40.345Z,950.83
2023-03-12T09:29:58.858Z,950.78
2023-03-12T09:30:45.358Z,950.83
2023-03-12T09:31:47.331Z,950.81
2023-03-12T09:32:49.454Z,950.8
2023-03-12T09:33:51.328Z,950.81
2023-03-12T09:34:53.365Z,950.8
2023-03-12T09:35:55.370Z,950.77
2023-03-12T09:36:57.324Z,950.8
2023-03-12T09:37:59.322Z,950.78
2023-03-12T09:39:01.332Z,950.73
2023-03-12T09:40:03.388Z,950.73
2023-03-12T09:41:06.345Z,950.74
2023-03-12T09:42:08.336Z,950.77
2023-03-12T09:43:12.357Z,950.79
2023-03-12T09:44:15.379Z,950.73
2023-03-12T09:45:17.336Z,950.72
2023-03-12T09:46:19.344Z,950.69
2023-03-12T09:47:21.329Z,950.61
2023-03-12T09:48:23.342Z,950.56
2023-03-12T09:49:25.339Z,950.45
2023-03-12T09:50:27.363Z,950.42
2023-03-12T09:51:29.365Z,950.37
2023-03-12T09:52:32.337Z,950.35
2023-03-12T09:53:34.349Z,950.31
2023-03-12T09:54:36.369Z,950.29
2023-03-12T09:55:38.342Z,950.3
2023-03-12T09:56:40.345Z,950.28
2023-03-12T09:57:42.354Z,950.26
2023-03-12T09:58:44.393Z,950.25
2023-03-12T09:59:47.345Z,950.25
2023-03-12T10:00:49.376Z,950.11
2023-03-12T10:01:51.337Z,950.09
2023-03-12T10:02:53.396Z,950.16
2023-03-12T10:03:55.393Z,950.14
2023-03-12T10:04:59.778Z,950.16
2023-03-12T10:06:00.436Z,950.12
2023-03-12T10:07:02.341Z,950.16
2023-03-12T10:08:23.082Z,950.15
2023-03-12T10:09:08.400Z,950.18
2023-03-12T10:10:10.377Z,950.14
2023-03-12T10:11:12.378Z,950.15
2023-03-12T10:13:17.379Z,950.03
2023-03-12T10:15:21.358Z,950.08
2023-03-12T10:18:28.489Z,950.13
2023-03-12T10:19:30.398Z,950.23
2023-03-12T10:20:32.372Z,950.26
2023-03-12T10:22:15.137Z,950.3
2023-03-12T10:23:15.144Z,950.22
2023-03-12T10:24:40.714Z,950.19
2023-03-12T10:25:43.367Z,950.16
2023-03-12T10:26:45.369Z,950.14
2023-03-12T10:28:49.371Z,950.15
2023-03-12T10:29:51.358Z,950.14
2023-03-12T10:30:53.435Z,950.13
2023-03-12T10:31:55.374Z,950.11
2023-03-12T10:33:59.436Z,950.1
2023-03-12T10:36:03.398Z,950.1
2023-03-12T10:38:07.403Z,950.04
2023-03-12T10:39:09.369Z,950.03
2023-03-12T10:40:12.404Z,950.05
2023-03-12T10:41:15.452Z,950.09
2023-03-12T10:44:21.371Z,950.09
2023-03-12T10:45:35.831Z,950.1
2023-03-12T10:46:25.485Z,950.06
2023-03-12T10:47:28.372Z,950.03
2023-03-12T10:48:30.402Z,950.04
2023-03-12T10:49:32.369Z,950
2023-03-12T10:50:35.376Z,950.01
2023-03-12T10:51:37.420Z,950.05
2023-03-12T10:52:39.446Z,950.12
2023-03-12T10:53:41.419Z,950.11
2023-03-12T10:54:43.389Z,950.1
2023-03-12T10:55:46.405Z,950.09
2023-03-12T10:56:48.400Z,950.03
2023-03-12T10:57:51.400Z,950.07
2023-03-12T10:58:53.416Z,950.07
2023-03-12T10:59:56.376Z,950.04
2023-03-12T11:00:58.390Z,950.01
2023-03-12T11:02:00.455Z,950.02
2023-03-12T11:03:03.471Z,949.99
2023-03-12T11:05:07.384Z,950.04
2023-03-12T11:06:09.485Z,950.08
2023-03-12T11:07:12.420Z,950.09
2023-03-12T11:08:15.491Z,950.1
2023-03-12T11:09:17.749Z,950.13
2023-03-12T11:10:19.432Z,950.15
2023-03-12T11:11:22.389Z,950.13
2023-03-12T11:12:24.404Z,950.08
2023-03-12T11:13:26.434Z,950.07
2023-03-12T11:15:15.133Z,950.06
2023-03-12T11:16:15.150Z,950.06
2023-03-12T11:17:15.138Z,950.05
2023-03-12T11:18:15.134Z,950.02
2023-03-12T11:19:15.179Z,950.05
2023-03-12T11:20:15.148Z,950.01
2023-03-12T11:21:15.128Z,950.02
2023-03-12T11:23:15.192Z,950.02
2023-03-12T11:24:15.177Z,950.07
2023-03-12T11:25:15.199Z,950.02
2023-03-12T11:26:53.441Z,949.96
2023-03-12T11:27:55.467Z,949.96
2023-03-12T11:28:57.431Z,949.93
2023-03-12T11:29:59.410Z,949.93
2023-03-12T11:31:02.616Z,949.92
2023-03-12T11:32:17.863Z,949.9
2023-03-12T11:33:06.407Z,949.89
2023-03-12T11:34:09.400Z,949.87
2023-03-12T11:35:12.423Z,949.85
2023-03-12T11:36:15.547Z,949.88
2023-03-12T11:37:17.406Z,949.79
2023-03-12T11:38:20.404Z,949.81
2023-03-12T11:41:27.436Z,949.75
2023-03-12T11:42:29.450Z,949.75
2023-03-12T11:43:42.022Z,949.72
2023-03-12T11:44:35.421Z,949.75
2023-03-12T11:45:37.413Z,949.71
2023-03-12T11:46:39.514Z,949.69
2023-03-12T11:47:41.479Z,949.66
2023-03-12T11:49:48.561Z,949.65
2023-03-12T11:50:48.426Z,949.64
2023-03-12T11:52:15.167Z,949.6
2023-03-12T11:53:15.167Z,949.59
2023-03-12T11:54:15.163Z,949.65
2023-03-12T11:55:16.637Z,949.67
2023-03-12T11:56:15.244Z,949.6
2023-03-12T11:57:15.221Z,949.55
2023-03-12T11:58:15.170Z,949.52
2023-03-12T11:59:15.179Z,949.53
2023-03-12T12:00:15.171Z,949.52
2023-03-12T12:01:15.206Z,949.53
2023-03-12T12:02:15.326Z,949.5
2023-03-12T12:03:15.589Z,949.47
2023-03-12T12:04:17.426Z,949.53
2023-03-12T12:05:19.448Z,949.47
2023-03-12T12:06:21.429Z,949.44
2023-03-12T12:07:23.433Z,949.44
2023-03-12T12:08:25.463Z,949.37
2023-03-12T12:09:27.432Z,949.37
2023-03-12T12:10:30.481Z,949.33
2023-03-12T12:11:32.431Z,949.33
2023-03-12T12:12:35.487Z,949.37
2023-03-12T12:13:37.478Z,949.35
2023-03-12T12:14:39.435Z,949.36
2023-03-12T12:15:53.830Z,949.36
2023-03-12T12:16:43.559Z,949.38
2023-03-12T12:17:45.460Z,949.4
2023-03-12T12:18:48.429Z,949.37
2023-03-12T12:20:52.433Z,949.38
2023-03-12T12:21:54.455Z,949.37
2023-03-12T12:22:57.438Z,949.34
2023-03-12T12:24:17.758Z,949.28
2023-03-12T12:25:15.216Z,949.27
2023-03-12T12:27:15.184Z,949.32
2023-03-12T12:28:15.228Z,949.37
2023-03-12T12:29:23.894Z,949.41
2023-03-12T12:30:16.443Z,949.32
2023-03-12T12:31:18.499Z,949.34
2023-03-12T12:32:20.489Z,949.31
2023-03-12T12:33:23.450Z,949.32
2023-03-12T12:34:25.660Z,949.29
2023-03-12T12:35:27.447Z,949.28
2023-03-12T12:36:29.464Z,949.26
2023-03-12T12:37:32.452Z,949.23
2023-03-12T12:38:34.453Z,949.23
2023-03-12T12:39:37.463Z,949.21
2023-03-12T12:40:39.498Z,949.19
2023-03-12T12:41:41.451Z,949.15
2023-03-12T12:42:43.546Z,949.15
2023-03-12T12:43:59.858Z,949.17
2023-03-12T12:44:47.447Z,949.17
2023-03-12T12:45:49.485Z,949.15
2023-03-12T12:47:54.454Z,949.16
2023-03-12T12:48:56.549Z,949.17
2023-03-12T12:49:58.454Z,949.21
2023-03-12T12:51:00.479Z,949.2
2023-03-12T12:52:02.459Z,949.13
2023-03-12T12:53:04.459Z,949.08
2023-03-12T12:54:07.512Z,949.05
2023-03-12T12:56:15.211Z,949
2023-03-12T13:00:22.916Z,949.01
2023-03-12T13:01:30.009Z,948.97
2023-03-12T13:02:27.749Z,949.04
2023-03-12T13:03:28.902Z,949.06
2023-03-12T13:04:31.052Z,949.01
2023-03-12T13:05:33.901Z,948.98
2023-03-12T13:06:37.963Z,948.98
2023-03-12T13:07:37.946Z,948.94
2023-03-12T13:08:40.910Z,948.96
2023-03-12T13:09:42.902Z,948.96
2023-03-12T13:11:46.905Z,948.95
2023-03-12T13:12:48.968Z,948.91
2023-03-12T13:13:50.902Z,948.91
2023-03-12T13:14:52.911Z,948.9
2023-03-12T13:15:54.942Z,948.89
2023-03-12T13:16:56.908Z,948.94
2023-03-12T13:17:58.980Z,948.93
2023-03-12T13:19:00.952Z,948.91
2023-03-12T13:20:02.926Z,948.9
2023-03-12T13:21:04.912Z,948.92
2023-03-12T13:22:06.919Z,948.9
2023-03-12T13:23:09.987Z,948.89
2023-03-12T13:24:13.136Z,948.91
2023-03-12T13:25:15.925Z,948.94
2023-03-12T13:26:17.919Z,948.95
2023-03-12T13:27:19.925Z,948.98
2023-03-12T13:28:21.973Z,948.94
2023-03-12T13:29:23.943Z,948.92
2023-03-12T13:30:25.932Z,948.94
2023-03-12T13:31:27.968Z,948.98
2023-03-12T13:32:31.017Z,948.95
2023-03-12T13:33:32.927Z,948.94
2023-03-12T13:35:15.248Z,948.8
2023-03-12T13:36:15.321Z,948.85
2023-03-12T13:37:15.238Z,948.95
2023-03-12T13:38:15.230Z,948.92
2023-03-12T13:40:15.490Z,948.88
2023-03-12T13:41:49.975Z,948.87
2023-03-12T13:44:05.881Z,948.86
2023-03-12T13:44:56.970Z,948.86
2023-03-12T13:45:58.975Z,948.9
2023-03-12T13:47:00.974Z,948.88
2023-03-12T13:48:03.695Z,948.87
2023-03-12T13:50:15.253Z,948.85
2023-03-12T13:51:15.245Z,948.91
2023-03-12T13:52:15.285Z,948.96
2023-03-12T13:53:15.944Z,948.96
2023-03-12T13:54:17.985Z,948.97
2023-03-12T13:55:19.944Z,948.94
2023-03-12T13:57:23.944Z,948.89
2023-03-12T13:59:29.005Z,948.91
2023-03-12T14:00:30.988Z,948.94
2023-03-12T14:01:32.993Z,949.01
2023-03-12T14:02:36.009Z,949.04
2023-03-12T14:03:40.253Z,949.06
2023-03-12T14:04:39.984Z,949.07
2023-03-12T14:05:41.939Z,949.05
2023-03-12T14:06:43.929Z,949.07
2023-03-12T14:07:45.962Z,949.07
2023-03-12T14:08:47.979Z,949.04
2023-03-12T14:09:49.982Z,949.07
2023-03-12T14:10:51.947Z,949.08